sensor_id;sensor_type;location;lat;lon;timestamp;temperature;humidity
1355;DHT22;671;48.972;9.276;2023-02-01T00:02:23;6.30;99.90
1355;DHT22;671;48.972;9.276;2023-02-01T00:04:49;6.40;1.00
1355;DHT22;671;48.972;9.276;2023-02-01T00:07:16;6.40;1.00
1355;DHT22;671;48.972;9.276;2023-02-01T00:09:42;6.40;99.90
1355;DHT22;671;48.972;9.276;2023-02-01T00:12:09;6.40;99.90
1355;DHT22;671;48.972;9.276;2023-02-01T00:14:35;6.40;99.90
1355;DHT22;671;48.972;9.276;2023-02-01T00:17:05;6.40;99.90
1355;DHT22;671;48.972;9.276;2023-02-01T00:19:33;6.40;99.90
1355;DHT22;671;48.972;9.276;2023-02-01T00:22:00;6.40;99.90
1355;DHT22;671;48.972;9.276;2023-02-01T00:24:27;6.50;99.90
1355;DHT22;671;48.972;9.276;2023-02-01T00:26:53;6.40;99.90
1355;DHT22;671;48.972;9.276;2023-02-01T00:29:20;6.40;99.90
1355;DHT22;671;48.972;9.276;2023-02-01T00:31:48;6.50;99.90
1355;DHT22;671;48.972;9.276;2023-02-01T00:34:16;6.50;99.90
1355;DHT22;671;48.972;9.276;2023-02-01T00:36:43;6.40;99.90
1355;DHT22;671;48.972;9.276;2023-02-01T00:39:10;6.50;99.90
1355;DHT22;671;48.972;9.276;2023-02-01T00:41:36;6.40;99.90
1355;DHT22;671;48.972;9.276;2023-02-01T00:44:03;6.40;99.90
1355;DHT22;671;48.972;9.276;2023-02-01T00:46:30;6.40;99.90
1355;DHT22;671;48.972;9.276;2023-02-01T00:48:57;6.40;99.90
1355;DHT22;671;48.972;9.276;2023-02-01T00:51:27;6.40;99.90
1355;DHT22;671;48.972;9.276;2023-02-01T00:53:54;6.30;99.90
1355;DHT22;671;48.972;9.276;2023-02-01T00:56:21;6.30;99.90
1355;DHT22;671;48.972;9.276;2023-02-01T00:58:48;6.30;99.90
1355;DHT22;671;48.972;9.276;2023-02-01T01:01:15;6.20;99.90
1355;DHT22;671;48.972;9.276;2023-02-01T01:03:44;6.20;99.90
1355;DHT22;671;48.972;9.276;2023-02-01T01:06:14;6.10;99.90
1355;DHT22;671;48.972;9.276;2023-02-01T01:08:42;6.10;99.90
1355;DHT22;671;48.972;9.276;2023-02-01T01:11:15;6.10;99.90
1355;DHT22;671;48.972;9.276;2023-02-01T01:13:42;6.10;99.90
1355;DHT22;671;48.972;9.276;2023-02-01T01:16:10;6.10;99.90
1355;DHT22;671;48.972;9.276;2023-02-01T01:18:37;6.10;99.90
1355;DHT22;671;48.972;9.276;2023-02-01T01:21:08;6.10;99.90
1355;DHT22;671;48.972;9.276;2023-02-01T01:23:35;6.10;99.90
1355;DHT22;671;48.972;9.276;2023-02-01T01:26:25;6.10;99.90
1355;DHT22;671;48.972;9.276;2023-02-01T01:28:52;6.20;99.90
1355;DHT22;671;48.972;9.276;2023-02-01T01:31:20;6.20;99.90
1355;DHT22;671;48.972;9.276;2023-02-01T01:33:49;6.20;99.90
1355;DHT22;671;48.972;9.276;2023-02-01T01:36:16;6.10;99.90
1355;DHT22;671;48.972;9.276;2023-02-01T01:38:43;6.10;99.90
1355;DHT22;671;48.972;9.276;2023-02-01T01:41:14;6.10;99.90
1355;DHT22;671;48.972;9.276;2023-02-01T01:46:18;6.00;99.90
1355;DHT22;671;48.972;9.276;2023-02-01T01:48:49;6.00;99.90
1355;DHT22;671;48.972;9.276;2023-02-01T01:51:19;6.00;99.90
1355;DHT22;671;48.972;9.276;2023-02-01T01:54:03;5.90;99.90
1355;DHT22;671;48.972;9.276;2023-02-01T01:56:32;5.90;99.90
1355;DHT22;671;48.972;9.276;2023-02-01T01:58:59;5.90;99.90
1355;DHT22;671;48.972;9.276;2023-02-01T02:01:26;5.90;99.90
1355;DHT22;671;48.972;9.276;2023-02-01T02:03:53;5.90;99.90
1355;DHT22;671;48.972;9.276;2023-02-01T02:06:30;5.90;99.90
1355;DHT22;671;48.972;9.276;2023-02-01T02:08:58;5.90;99.90
1355;DHT22;671;48.972;9.276;2023-02-01T02:11:25;5.90;99.90
1355;DHT22;671;48.972;9.276;2023-02-01T02:13:54;5.90;1.00
1355;DHT22;671;48.972;9.276;2023-02-01T02:16:58;5.90;1.00
1355;DHT22;671;48.972;9.276;2023-02-01T02:41:54;5.80;1.00
1355;DHT22;671;48.972;9.276;2023-02-01T02:44:53;5.90;1.00
1355;DHT22;671;48.972;9.276;2023-02-01T02:47:46;5.90;1.00
1355;DHT22;671;48.972;9.276;2023-02-01T02:53:16;5.90;1.00
1355;DHT22;671;48.972;9.276;2023-02-01T02:56:06;6.00;1.00
1355;DHT22;671;48.972;9.276;2023-02-01T02:58:53;5.90;1.00
1355;DHT22;671;48.972;9.276;2023-02-01T03:01:39;5.90;99.90
1355;DHT22;671;48.972;9.276;2023-02-01T03:04:24;5.80;1.00
1355;DHT22;671;48.972;9.276;2023-02-01T03:06:52;5.80;1.00
1355;DHT22;671;48.972;9.276;2023-02-01T03:09:39;5.80;1.00
1355;DHT22;671;48.972;9.276;2023-02-01T03:12:11;5.80;1.00
1355;DHT22;671;48.972;9.276;2023-02-01T03:15:03;5.80;1.00
1355;DHT22;671;48.972;9.276;2023-02-01T03:17:36;5.80;99.90
1355;DHT22;671;48.972;9.276;2023-02-01T03:20:06;5.80;99.90
1355;DHT22;671;48.972;9.276;2023-02-01T03:22:35;5.80;1.00
1355;DHT22;671;48.972;9.276;2023-02-01T03:25:12;5.80;99.90
1355;DHT22;671;48.972;9.276;2023-02-01T03:27:51;5.80;99.90
1355;DHT22;671;48.972;9.276;2023-02-01T03:30:29;5.80;99.90
1355;DHT22;671;48.972;9.276;2023-02-01T03:32:59;5.80;99.90
1355;DHT22;671;48.972;9.276;2023-02-01T03:38:18;5.80;99.90
1355;DHT22;671;48.972;9.276;2023-02-01T03:40:56;5.80;99.90
1355;DHT22;671;48.972;9.276;2023-02-01T03:43:25;5.90;99.90
1355;DHT22;671;48.972;9.276;2023-02-01T03:45:58;5.90;99.90
1355;DHT22;671;48.972;9.276;2023-02-01T03:48:28;5.90;99.90
1355;DHT22;671;48.972;9.276;2023-02-01T03:50:59;5.90;99.90
1355;DHT22;671;48.972;9.276;2023-02-01T03:53:26;5.90;99.90
1355;DHT22;671;48.972;9.276;2023-02-01T03:55:54;6.00;99.90
1355;DHT22;671;48.972;9.276;2023-02-01T03:58:23;6.00;99.90
1355;DHT22;671;48.972;9.276;2023-02-01T04:03:17;6.00;99.90
1355;DHT22;671;48.972;9.276;2023-02-01T04:05:44;6.00;99.90
1355;DHT22;671;48.972;9.276;2023-02-01T04:08:10;5.90;99.90
1355;DHT22;671;48.972;9.276;2023-02-01T04:10:37;5.90;99.90
1355;DHT22;671;48.972;9.276;2023-02-01T04:13:03;5.90;99.90
1355;DHT22;671;48.972;9.276;2023-02-01T04:15:30;6.00;99.90
1355;DHT22;671;48.972;9.276;2023-02-01T04:17:56;6.00;99.90
1355;DHT22;671;48.972;9.276;2023-02-01T04:20:22;6.00;99.90
1355;DHT22;671;48.972;9.276;2023-02-01T04:22:49;6.00;99.90
1355;DHT22;671;48.972;9.276;2023-02-01T04:25:15;6.00;99.90
1355;DHT22;671;48.972;9.276;2023-02-01T04:27:43;6.10;99.90
1355;DHT22;671;48.972;9.276;2023-02-01T04:30:10;6.10;99.90
1355;DHT22;671;48.972;9.276;2023-02-01T04:32:38;6.10;99.90
1355;DHT22;671;48.972;9.276;2023-02-01T04:35:05;6.20;99.90
1355;DHT22;671;48.972;9.276;2023-02-01T04:37:31;6.20;99.90
1355;DHT22;671;48.972;9.276;2023-02-01T04:39:58;6.20;99.90
1355;DHT22;671;48.972;9.276;2023-02-01T04:42:24;6.30;99.90
1355;DHT22;671;48.972;9.276;2023-02-01T04:44:51;6.30;99.90
1355;DHT22;671;48.972;9.276;2023-02-01T04:47:17;6.40;99.90
1355;DHT22;671;48.972;9.276;2023-02-01T04:49:44;6.40;99.90
1355;DHT22;671;48.972;9.276;2023-02-01T04:52:10;6.40;99.90
1355;DHT22;671;48.972;9.276;2023-02-01T04:54:37;6.40;99.90
1355;DHT22;671;48.972;9.276;2023-02-01T04:57:03;6.50;99.90
1355;DHT22;671;48.972;9.276;2023-02-01T04:59:30;6.50;99.90
1355;DHT22;671;48.972;9.276;2023-02-01T05:01:56;6.50;99.90
1355;DHT22;671;48.972;9.276;2023-02-01T05:04:23;6.50;99.90
1355;DHT22;671;48.972;9.276;2023-02-01T05:06:49;6.50;95.20
1355;DHT22;671;48.972;9.276;2023-02-01T05:09:16;6.50;94.90
1355;DHT22;671;48.972;9.276;2023-02-01T05:11:42;6.60;99.90
1355;DHT22;671;48.972;9.276;2023-02-01T05:14:27;6.60;93.90
1355;DHT22;671;48.972;9.276;2023-02-01T05:16:53;6.60;1.00
1355;DHT22;671;48.972;9.276;2023-02-01T05:19:20;6.60;17.00
1355;DHT22;671;48.972;9.276;2023-02-01T05:21:47;6.60;1.00
1355;DHT22;671;48.972;9.276;2023-02-01T05:24:13;6.60;1.00
1355;DHT22;671;48.972;9.276;2023-02-01T05:26:41;6.70;1.00
1355;DHT22;671;48.972;9.276;2023-02-01T05:29:09;6.60;1.00
1355;DHT22;671;48.972;9.276;2023-02-01T05:31:36;6.70;1.00
1355;DHT22;671;48.972;9.276;2023-02-01T05:34:03;6.70;1.00
1355;DHT22;671;48.972;9.276;2023-02-01T05:36:30;6.60;1.00
1355;DHT22;671;48.972;9.276;2023-02-01T05:38:56;6.60;92.00
1355;DHT22;671;48.972;9.276;2023-02-01T05:41:23;6.60;99.90
1355;DHT22;671;48.972;9.276;2023-02-01T05:43:49;6.60;99.90
1355;DHT22;671;48.972;9.276;2023-02-01T05:46:16;6.60;99.90
1355;DHT22;671;48.972;9.276;2023-02-01T05:48:43;6.60;99.90
1355;DHT22;671;48.972;9.276;2023-02-01T05:51:10;6.60;99.90
1355;DHT22;671;48.972;9.276;2023-02-01T05:53:37;6.60;99.90
1355;DHT22;671;48.972;9.276;2023-02-01T05:56:04;6.60;99.90
1355;DHT22;671;48.972;9.276;2023-02-01T05:58:30;6.60;99.90
1355;DHT22;671;48.972;9.276;2023-02-01T06:00:59;6.60;99.90
1355;DHT22;671;48.972;9.276;2023-02-01T06:03:26;6.60;99.90
1355;DHT22;671;48.972;9.276;2023-02-01T06:05:53;6.60;99.90
1355;DHT22;671;48.972;9.276;2023-02-01T06:08:20;6.70;99.90
1355;DHT22;671;48.972;9.276;2023-02-01T06:10:46;6.60;99.90
1355;DHT22;671;48.972;9.276;2023-02-01T06:13:13;6.60;99.90
1355;DHT22;671;48.972;9.276;2023-02-01T06:15:39;6.60;95.20
1355;DHT22;671;48.972;9.276;2023-02-01T06:18:08;6.60;95.20
1355;DHT22;671;48.972;9.276;2023-02-01T06:20:35;6.60;99.90
1355;DHT22;671;48.972;9.276;2023-02-01T06:23:01;6.60;99.90
1355;DHT22;671;48.972;9.276;2023-02-01T06:25:27;6.50;99.90
1355;DHT22;671;48.972;9.276;2023-02-01T06:27:54;6.50;99.90
1355;DHT22;671;48.972;9.276;2023-02-01T06:30:20;6.50;99.90
1355;DHT22;671;48.972;9.276;2023-02-01T06:32:50;6.50;99.90
1355;DHT22;671;48.972;9.276;2023-02-01T06:35:19;6.50;99.90
1355;DHT22;671;48.972;9.276;2023-02-01T06:37:46;6.50;99.90
1355;DHT22;671;48.972;9.276;2023-02-01T06:40:12;6.50;99.90
1355;DHT22;671;48.972;9.276;2023-02-01T06:42:39;6.50;99.90
1355;DHT22;671;48.972;9.276;2023-02-01T06:45:06;6.50;99.90
1355;DHT22;671;48.972;9.276;2023-02-01T06:47:33;6.50;99.90
1355;DHT22;671;48.972;9.276;2023-02-01T06:49:59;6.50;99.90
1355;DHT22;671;48.972;9.276;2023-02-01T06:52:26;6.50;99.90
1355;DHT22;671;48.972;9.276;2023-02-01T06:54:52;6.50;99.90
1355;DHT22;671;48.972;9.276;2023-02-01T06:57:19;6.50;1.00
1355;DHT22;671;48.972;9.276;2023-02-01T06:59:45;6.50;1.00
1355;DHT22;671;48.972;9.276;2023-02-01T07:02:12;6.50;1.00
1355;DHT22;671;48.972;9.276;2023-02-01T07:04:38;6.40;1.00
1355;DHT22;671;48.972;9.276;2023-02-01T07:07:05;6.40;1.00
1355;DHT22;671;48.972;9.276;2023-02-01T07:09:31;6.50;1.00
1355;DHT22;671;48.972;9.276;2023-02-01T07:11:58;6.40;1.00
1355;DHT22;671;48.972;9.276;2023-02-01T07:14:24;6.50;1.00
1355;DHT22;671;48.972;9.276;2023-02-01T07:16:51;6.40;1.00
1355;DHT22;671;48.972;9.276;2023-02-01T07:19:17;6.40;1.00
1355;DHT22;671;48.972;9.276;2023-02-01T07:21:44;6.40;1.00
1355;DHT22;671;48.972;9.276;2023-02-01T07:24:10;6.40;1.00
1355;DHT22;671;48.972;9.276;2023-02-01T07:26:36;6.40;1.00
1355;DHT22;671;48.972;9.276;2023-02-01T07:29:03;6.40;1.00
1355;DHT22;671;48.972;9.276;2023-02-01T07:31:29;6.50;1.00
1355;DHT22;671;48.972;9.276;2023-02-01T07:33:56;6.50;1.00
1355;DHT22;671;48.972;9.276;2023-02-01T07:36:24;6.40;1.00
1355;DHT22;671;48.972;9.276;2023-02-01T07:38:50;6.40;1.00
1355;DHT22;671;48.972;9.276;2023-02-01T07:41:18;6.40;1.00
1355;DHT22;671;48.972;9.276;2023-02-01T07:43:44;6.50;1.00
1355;DHT22;671;48.972;9.276;2023-02-01T07:46:11;6.40;1.00
1355;DHT22;671;48.972;9.276;2023-02-01T07:48:38;6.40;1.00
1355;DHT22;671;48.972;9.276;2023-02-01T07:51:08;6.30;1.00
1355;DHT22;671;48.972;9.276;2023-02-01T07:53:35;6.40;1.00
1355;DHT22;671;48.972;9.276;2023-02-01T07:56:02;6.30;1.00
1355;DHT22;671;48.972;9.276;2023-02-01T07:58:29;6.30;1.00
1355;DHT22;671;48.972;9.276;2023-02-01T08:00:56;6.40;1.00
1355;DHT22;671;48.972;9.276;2023-02-01T08:03:41;6.40;1.00
1355;DHT22;671;48.972;9.276;2023-02-01T08:06:07;6.50;1.00
1355;DHT22;671;48.972;9.276;2023-02-01T08:08:34;6.50;1.00
1355;DHT22;671;48.972;9.276;2023-02-01T08:11:03;6.50;1.00
1355;DHT22;671;48.972;9.276;2023-02-01T08:13:30;6.50;1.00
1355;DHT22;671;48.972;9.276;2023-02-01T08:16:02;6.60;1.00
1355;DHT22;671;48.972;9.276;2023-02-01T08:18:29;6.60;1.00
1355;DHT22;671;48.972;9.276;2023-02-01T08:20:55;6.50;1.00
1355;DHT22;671;48.972;9.276;2023-02-01T08:23:22;6.50;1.00
1355;DHT22;671;48.972;9.276;2023-02-01T08:25:49;6.50;1.00
1355;DHT22;671;48.972;9.276;2023-02-01T08:28:15;6.50;1.00
1355;DHT22;671;48.972;9.276;2023-02-01T08:30:42;6.60;1.00
1355;DHT22;671;48.972;9.276;2023-02-01T08:33:09;6.70;1.00
1355;DHT22;671;48.972;9.276;2023-02-01T08:35:36;6.70;1.00
1355;DHT22;671;48.972;9.276;2023-02-01T08:38:02;6.70;1.00
1355;DHT22;671;48.972;9.276;2023-02-01T08:40:29;6.80;1.00
1355;DHT22;671;48.972;9.276;2023-02-01T08:42:56;6.80;1.00
1355;DHT22;671;48.972;9.276;2023-02-01T08:45:25;6.80;1.00
1355;DHT22;671;48.972;9.276;2023-02-01T08:47:52;6.80;1.00
1355;DHT22;671;48.972;9.276;2023-02-01T08:50:20;6.80;1.00
1355;DHT22;671;48.972;9.276;2023-02-01T08:52:47;6.90;1.00
1355;DHT22;671;48.972;9.276;2023-02-01T08:55:14;6.90;1.00
1355;DHT22;671;48.972;9.276;2023-02-01T08:57:41;6.90;1.00
1355;DHT22;671;48.972;9.276;2023-02-01T09:00:11;6.90;1.00
1355;DHT22;671;48.972;9.276;2023-02-01T09:02:38;6.90;1.00
1355;DHT22;671;48.972;9.276;2023-02-01T09:05:05;7.00;1.00
1355;DHT22;671;48.972;9.276;2023-02-01T09:07:33;7.00;1.00
1355;DHT22;671;48.972;9.276;2023-02-01T09:09:59;7.10;1.00
1355;DHT22;671;48.972;9.276;2023-02-01T09:12:30;7.10;99.90
1355;DHT22;671;48.972;9.276;2023-02-01T09:14:57;7.20;99.90
1355;DHT22;671;48.972;9.276;2023-02-01T09:17:26;7.30;99.90
1355;DHT22;671;48.972;9.276;2023-02-01T09:19:53;7.40;99.90
1355;DHT22;671;48.972;9.276;2023-02-01T09:22:20;7.50;99.90
1355;DHT22;671;48.972;9.276;2023-02-01T09:24:47;7.70;1.00
1355;DHT22;671;48.972;9.276;2023-02-01T09:27:13;7.70;94.40
1355;DHT22;671;48.972;9.276;2023-02-01T09:29:40;7.80;1.00
1355;DHT22;671;48.972;9.276;2023-02-01T09:32:06;7.80;1.00
1355;DHT22;671;48.972;9.276;2023-02-01T09:34:34;7.80;1.00
1355;DHT22;671;48.972;9.276;2023-02-01T09:37:01;7.80;1.00
1355;DHT22;671;48.972;9.276;2023-02-01T09:39:28;7.80;1.00
1355;DHT22;671;48.972;9.276;2023-02-01T09:45:03;7.60;1.00
1355;DHT22;671;48.972;9.276;2023-02-01T09:47:32;7.60;1.00
1355;DHT22;671;48.972;9.276;2023-02-01T09:50:05;7.50;1.00
1355;DHT22;671;48.972;9.276;2023-02-01T09:55:36;7.60;1.00
1355;DHT22;671;48.972;9.276;2023-02-01T09:58:12;7.60;1.00
1355;DHT22;671;48.972;9.276;2023-02-01T10:00:40;7.60;1.00
1355;DHT22;671;48.972;9.276;2023-02-01T10:03:12;7.70;1.00
1355;DHT22;671;48.972;9.276;2023-02-01T10:11:26;7.80;1.00
1355;DHT22;671;48.972;9.276;2023-02-01T10:14:11;7.80;1.00
1355;DHT22;671;48.972;9.276;2023-02-01T10:16:49;7.90;1.00
1355;DHT22;671;48.972;9.276;2023-02-01T10:22:09;7.80;1.00
1355;DHT22;671;48.972;9.276;2023-02-01T10:27:34;7.90;1.00
1355;DHT22;671;48.972;9.276;2023-02-01T10:30:16;8.00;1.00
1355;DHT22;671;48.972;9.276;2023-02-01T10:32:44;8.10;99.90
1355;DHT22;671;48.972;9.276;2023-02-01T10:35:31;8.10;41.30
1355;DHT22;671;48.972;9.276;2023-02-01T10:38:01;8.20;1.00
1355;DHT22;671;48.972;9.276;2023-02-01T10:40:29;8.30;1.00
1355;DHT22;671;48.972;9.276;2023-02-01T10:43:00;8.40;1.00
1355;DHT22;671;48.972;9.276;2023-02-01T10:45:30;8.30;1.00
1355;DHT22;671;48.972;9.276;2023-02-01T10:47:58;8.30;1.00
1355;DHT22;671;48.972;9.276;2023-02-01T10:53:03;8.30;1.00
1355;DHT22;671;48.972;9.276;2023-02-01T10:55:37;8.20;1.00
1355;DHT22;671;48.972;9.276;2023-02-01T10:58:27;8.10;1.00
1355;DHT22;671;48.972;9.276;2023-02-01T11:00:56;8.10;99.90
1355;DHT22;671;48.972;9.276;2023-02-01T11:03:41;8.10;1.00
1355;DHT22;671;48.972;9.276;2023-02-01T11:06:41;8.30;99.90
1355;DHT22;671;48.972;9.276;2023-02-01T11:14:20;8.40;1.00
1355;DHT22;671;48.972;9.276;2023-02-01T11:16:52;8.50;1.00
1355;DHT22;671;48.972;9.276;2023-02-01T11:19:19;8.50;1.00
1355;DHT22;671;48.972;9.276;2023-02-01T11:22:05;8.50;99.90
1355;DHT22;671;48.972;9.276;2023-02-01T11:24:34;8.50;99.90
1355;DHT22;671;48.972;9.276;2023-02-01T11:27:04;8.40;99.90
1355;DHT22;671;48.972;9.276;2023-02-01T11:29:52;8.40;99.90
1355;DHT22;671;48.972;9.276;2023-02-01T11:32:20;8.30;99.90
1355;DHT22;671;48.972;9.276;2023-02-01T11:34:55;8.40;99.90
1355;DHT22;671;48.972;9.276;2023-02-01T11:37:29;8.30;99.90
1355;DHT22;671;48.972;9.276;2023-02-01T11:39:58;8.30;99.90
1355;DHT22;671;48.972;9.276;2023-02-01T11:42:26;8.30;99.90
1355;DHT22;671;48.972;9.276;2023-02-01T11:45:20;8.30;99.90
1355;DHT22;671;48.972;9.276;2023-02-01T11:47:54;8.40;99.90
1355;DHT22;671;48.972;9.276;2023-02-01T11:55:48;8.40;1.00
1355;DHT22;671;48.972;9.276;2023-02-01T12:07:05;8.30;1.00
1355;DHT22;671;48.972;9.276;2023-02-01T12:39:45;8.00;1.00
1355;DHT22;671;48.972;9.276;2023-02-01T12:42:24;8.00;1.00
1355;DHT22;671;48.972;9.276;2023-02-01T12:45:00;8.10;1.00
1355;DHT22;671;48.972;9.276;2023-02-01T12:50:50;8.10;1.00
1355;DHT22;671;48.972;9.276;2023-02-01T12:53:24;8.00;1.00
1355;DHT22;671;48.972;9.276;2023-02-01T12:55:54;8.00;1.00
1355;DHT22;671;48.972;9.276;2023-02-01T12:58:26;8.00;1.00
1355;DHT22;671;48.972;9.276;2023-02-01T13:01:06;8.00;1.00
1355;DHT22;671;48.972;9.276;2023-02-01T13:03:52;8.00;1.00
1355;DHT22;671;48.972;9.276;2023-02-01T13:09:18;8.10;1.00
1355;DHT22;671;48.972;9.276;2023-02-01T13:11:48;8.20;1.00
1355;DHT22;671;48.972;9.276;2023-02-01T13:17:16;8.20;1.00
1355;DHT22;671;48.972;9.276;2023-02-01T13:20:05;8.20;1.00
1355;DHT22;671;48.972;9.276;2023-02-01T13:22:43;8.30;1.00
1355;DHT22;671;48.972;9.276;2023-02-01T13:27:37;8.20;1.00
1355;DHT22;671;48.972;9.276;2023-02-01T13:30:15;8.10;1.00
1355;DHT22;671;48.972;9.276;2023-02-01T13:38:44;7.90;1.00
1355;DHT22;671;48.972;9.276;2023-02-01T13:41:25;7.90;1.00
1355;DHT22;671;48.972;9.276;2023-02-01T13:43:59;7.90;1.00
1355;DHT22;671;48.972;9.276;2023-02-01T13:46:28;7.90;1.00
1355;DHT22;671;48.972;9.276;2023-02-01T13:49:00;7.80;1.00
1355;DHT22;671;48.972;9.276;2023-02-01T13:51:44;7.90;8.10
1355;DHT22;671;48.972;9.276;2023-02-01T13:54:32;7.90;25.60
1355;DHT22;671;48.972;9.276;2023-02-01T13:57:00;7.80;1.00
1355;DHT22;671;48.972;9.276;2023-02-01T13:59:50;7.80;48.10
1355;DHT22;671;48.972;9.276;2023-02-01T14:05:55;8.10;99.90
1355;DHT22;671;48.972;9.276;2023-02-01T14:10:48;8.00;1.00
1355;DHT22;671;48.972;9.276;2023-02-01T14:13:39;7.90;1.00
1355;DHT22;671;48.972;9.276;2023-02-01T14:21:25;7.80;26.20
1355;DHT22;671;48.972;9.276;2023-02-01T14:32:22;7.80;55.40
1355;DHT22;671;48.972;9.276;2023-02-01T14:34:54;7.80;8.50
1355;DHT22;671;48.972;9.276;2023-02-01T14:37:26;7.70;23.80
1355;DHT22;671;48.972;9.276;2023-02-01T14:50:46;7.50;99.90
1355;DHT22;671;48.972;9.276;2023-02-01T15:01:30;7.50;99.90
1355;DHT22;671;48.972;9.276;2023-02-01T15:04:11;7.50;99.90
1355;DHT22;671;48.972;9.276;2023-02-01T15:06:43;7.40;99.90
1355;DHT22;671;48.972;9.276;2023-02-01T15:14:42;7.40;99.90
1355;DHT22;671;48.972;9.276;2023-02-01T15:17:27;7.40;99.90
1355;DHT22;671;48.972;9.276;2023-02-01T15:22:39;7.40;99.90
1355;DHT22;671;48.972;9.276;2023-02-01T15:25:17;7.40;99.90
1355;DHT22;671;48.972;9.276;2023-02-01T15:27:44;7.40;99.90
1355;DHT22;671;48.972;9.276;2023-02-01T15:30:19;7.40;99.90
1355;DHT22;671;48.972;9.276;2023-02-01T15:32:47;7.40;99.90
1355;DHT22;671;48.972;9.276;2023-02-01T15:35:44;7.40;92.90
1355;DHT22;671;48.972;9.276;2023-02-01T15:41:03;7.30;10.40
1355;DHT22;671;48.972;9.276;2023-02-01T15:43:35;7.40;45.80
1355;DHT22;671;48.972;9.276;2023-02-01T15:46:08;7.40;1.00
1355;DHT22;671;48.972;9.276;2023-02-01T15:48:48;7.40;1.00
1355;DHT22;671;48.972;9.276;2023-02-01T15:51:27;7.40;1.00
1355;DHT22;671;48.972;9.276;2023-02-01T15:56:32;7.30;1.00
1355;DHT22;671;48.972;9.276;2023-02-01T15:59:02;7.30;1.00
1355;DHT22;671;48.972;9.276;2023-02-01T16:01:29;7.30;1.00
1355;DHT22;671;48.972;9.276;2023-02-01T16:04:21;7.30;1.00
1355;DHT22;671;48.972;9.276;2023-02-01T16:06:56;7.30;1.00
1355;DHT22;671;48.972;9.276;2023-02-01T16:09:34;7.30;1.00
1355;DHT22;671;48.972;9.276;2023-02-01T16:12:02;7.30;1.00
1355;DHT22;671;48.972;9.276;2023-02-01T16:14:30;7.30;1.00
1355;DHT22;671;48.972;9.276;2023-02-01T16:16:58;7.30;9.60
1355;DHT22;671;48.972;9.276;2023-02-01T16:19:24;7.30;1.00
1355;DHT22;671;48.972;9.276;2023-02-01T16:21:55;7.40;1.00
1355;DHT22;671;48.972;9.276;2023-02-01T16:24:21;7.40;1.00
1355;DHT22;671;48.972;9.276;2023-02-01T16:26:51;7.50;1.00
1355;DHT22;671;48.972;9.276;2023-02-01T16:29:17;7.40;1.00
1355;DHT22;671;48.972;9.276;2023-02-01T16:31:44;7.40;1.00
1355;DHT22;671;48.972;9.276;2023-02-01T16:34:14;7.40;1.00
1355;DHT22;671;48.972;9.276;2023-02-01T16:36:43;7.30;1.00
1355;DHT22;671;48.972;9.276;2023-02-01T16:39:14;7.30;1.00
1355;DHT22;671;48.972;9.276;2023-02-01T16:41:40;7.20;1.00
1355;DHT22;671;48.972;9.276;2023-02-01T16:44:07;7.10;1.00
1355;DHT22;671;48.972;9.276;2023-02-01T16:46:35;7.10;1.00
1355;DHT22;671;48.972;9.276;2023-02-01T16:49:05;7.00;1.00
1355;DHT22;671;48.972;9.276;2023-02-01T16:51:32;6.90;7.60
1355;DHT22;671;48.972;9.276;2023-02-01T16:54:00;6.90;1.00
1355;DHT22;671;48.972;9.276;2023-02-01T16:56:31;6.90;93.30
1355;DHT22;671;48.972;9.276;2023-02-01T16:58:58;6.90;69.60
1355;DHT22;671;48.972;9.276;2023-02-01T17:01:25;6.90;79.50
1355;DHT22;671;48.972;9.276;2023-02-01T17:03:52;6.90;8.70
1355;DHT22;671;48.972;9.276;2023-02-01T17:06:21;6.90;38.50
1355;DHT22;671;48.972;9.276;2023-02-01T17:08:52;6.90;34.90
1355;DHT22;671;48.972;9.276;2023-02-01T17:11:20;6.90;2.90
1355;DHT22;671;48.972;9.276;2023-02-01T17:13:47;6.90;44.30
1355;DHT22;671;48.972;9.276;2023-02-01T17:16:23;6.90;24.20
1355;DHT22;671;48.972;9.276;2023-02-01T17:18:59;6.90;1.00
1355;DHT22;671;48.972;9.276;2023-02-01T17:21:27;7.00;1.00
1355;DHT22;671;48.972;9.276;2023-02-01T17:23:55;7.00;66.80
1355;DHT22;671;48.972;9.276;2023-02-01T17:26:23;7.00;11.70
1355;DHT22;671;48.972;9.276;2023-02-01T17:28:50;7.00;1.00
1355;DHT22;671;48.972;9.276;2023-02-01T17:31:17;7.00;1.00
1355;DHT22;671;48.972;9.276;2023-02-01T17:33:44;7.00;1.00
1355;DHT22;671;48.972;9.276;2023-02-01T17:36:13;7.10;1.00
1355;DHT22;671;48.972;9.276;2023-02-01T17:38:40;7.10;1.00
1355;DHT22;671;48.972;9.276;2023-02-01T17:41:12;7.10;1.00
1355;DHT22;671;48.972;9.276;2023-02-01T17:43:39;7.10;1.00
1355;DHT22;671;48.972;9.276;2023-02-01T17:46:14;7.10;1.00
1355;DHT22;671;48.972;9.276;2023-02-01T17:48:41;7.10;1.00
1355;DHT22;671;48.972;9.276;2023-02-01T17:51:18;7.10;1.00
1355;DHT22;671;48.972;9.276;2023-02-01T17:53:45;7.10;1.00
1355;DHT22;671;48.972;9.276;2023-02-01T17:56:16;7.10;1.00
1355;DHT22;671;48.972;9.276;2023-02-01T17:58:43;7.10;1.00
1355;DHT22;671;48.972;9.276;2023-02-01T18:01:28;7.20;1.00
1355;DHT22;671;48.972;9.276;2023-02-01T18:03:55;7.20;1.00
1355;DHT22;671;48.972;9.276;2023-02-01T18:06:23;7.20;1.00
1355;DHT22;671;48.972;9.276;2023-02-01T18:08:52;7.10;1.00
1355;DHT22;671;48.972;9.276;2023-02-01T18:11:21;7.20;1.00
1355;DHT22;671;48.972;9.276;2023-02-01T18:13:49;7.10;1.00
1355;DHT22;671;48.972;9.276;2023-02-01T18:16:25;7.20;1.00
1355;DHT22;671;48.972;9.276;2023-02-01T18:18:52;7.20;1.00
1355;DHT22;671;48.972;9.276;2023-02-01T18:21:20;7.20;1.00
1355;DHT22;671;48.972;9.276;2023-02-01T18:23:48;7.20;1.00
1355;DHT22;671;48.972;9.276;2023-02-01T18:26:16;7.10;1.00
1355;DHT22;671;48.972;9.276;2023-02-01T18:28:42;7.20;1.00
1355;DHT22;671;48.972;9.276;2023-02-01T18:31:22;7.20;1.00
1355;DHT22;671;48.972;9.276;2023-02-01T18:33:49;7.10;1.00
1355;DHT22;671;48.972;9.276;2023-02-01T18:36:16;7.10;1.00
1355;DHT22;671;48.972;9.276;2023-02-01T18:38:43;7.10;1.00
1355;DHT22;671;48.972;9.276;2023-02-01T18:41:14;7.10;1.00
1355;DHT22;671;48.972;9.276;2023-02-01T18:43:41;7.10;1.00
1355;DHT22;671;48.972;9.276;2023-02-01T18:46:12;7.10;1.00
1355;DHT22;671;48.972;9.276;2023-02-01T18:48:39;7.10;1.00
1355;DHT22;671;48.972;9.276;2023-02-01T18:51:09;7.10;1.00
1355;DHT22;671;48.972;9.276;2023-02-01T18:53:37;7.00;1.00
1355;DHT22;671;48.972;9.276;2023-02-01T18:56:04;7.00;1.00
1355;DHT22;671;48.972;9.276;2023-02-01T18:58:31;7.00;1.00
1355;DHT22;671;48.972;9.276;2023-02-01T19:01:04;7.00;1.00
1355;DHT22;671;48.972;9.276;2023-02-01T19:03:31;7.00;1.00
1355;DHT22;671;48.972;9.276;2023-02-01T19:05:57;7.00;1.00
1355;DHT22;671;48.972;9.276;2023-02-01T19:08:24;7.00;1.00
1355;DHT22;671;48.972;9.276;2023-02-01T19:10:51;7.00;1.00
1355;DHT22;671;48.972;9.276;2023-02-01T19:13:18;7.00;1.00
1355;DHT22;671;48.972;9.276;2023-02-01T19:15:48;7.00;1.00
1355;DHT22;671;48.972;9.276;2023-02-01T19:18:15;7.00;1.00
1355;DHT22;671;48.972;9.276;2023-02-01T19:20:46;7.00;1.00
1355;DHT22;671;48.972;9.276;2023-02-01T19:23:19;7.00;1.00
1355;DHT22;671;48.972;9.276;2023-02-01T19:25:47;6.90;1.00
1355;DHT22;671;48.972;9.276;2023-02-01T19:28:14;7.00;1.00
1355;DHT22;671;48.972;9.276;2023-02-01T19:30:41;7.00;1.00
1355;DHT22;671;48.972;9.276;2023-02-01T19:33:07;7.00;1.00
1355;DHT22;671;48.972;9.276;2023-02-01T19:35:34;7.00;1.00
1355;DHT22;671;48.972;9.276;2023-02-01T19:38:00;7.10;1.00
1355;DHT22;671;48.972;9.276;2023-02-01T19:40:27;7.10;1.00
1355;DHT22;671;48.972;9.276;2023-02-01T19:42:54;7.00;1.00
1355;DHT22;671;48.972;9.276;2023-02-01T19:45:20;7.10;1.00
1355;DHT22;671;48.972;9.276;2023-02-01T19:47:47;7.10;1.00
1355;DHT22;671;48.972;9.276;2023-02-01T19:50:19;7.10;1.00
1355;DHT22;671;48.972;9.276;2023-02-01T19:52:46;7.10;1.00
1355;DHT22;671;48.972;9.276;2023-02-01T19:55:13;7.10;1.00
1355;DHT22;671;48.972;9.276;2023-02-01T19:57:40;7.10;1.00